createdAt,value
2022-11-17T00:01:26.145Z,4.57
2022-11-17T00:03:54.672Z,3.40
2022-11-17T00:06:23.043Z,4.32
2022-11-17T00:08:53.172Z,4.22
2022-11-17T00:11:21.452Z,4.35
2022-11-17T00:14:07.051Z,4.30
2022-11-17T00:16:36.738Z,5.00
2022-11-17T00:19:27.681Z,5.05
2022-11-17T00:21:55.824Z,4.65
2022-11-17T00:24:24.101Z,4.60
2022-11-17T00:27:04.337Z,4.78
2022-11-17T00:29:32.901Z,5.13
2022-11-17T00:32:19.617Z,4.28
2022-11-17T00:34:47.783Z,3.90
2022-11-17T00:37:16.729Z,4.20
2022-11-17T00:39:44.698Z,5.03
2022-11-17T00:42:15.798Z,5.07
2022-11-17T00:44:43.778Z,4.55
2022-11-17T00:47:13.208Z,4.47
2022-11-17T00:49:41.219Z,4.50
2022-11-17T00:52:10.839Z,4.80
2022-11-17T00:54:38.913Z,4.20
2022-11-17T00:57:07.087Z,4.35
2022-11-17T00:59:35.171Z,4.55
2022-11-17T01:02:03.260Z,4.20
2022-11-17T01:04:32.912Z,4.78
2022-11-17T01:07:01.050Z,4.03
2022-11-17T01:09:29.199Z,4.80
2022-11-17T01:11:57.391Z,5.55
2022-11-17T01:14:28.185Z,4.35
2022-11-17T01:16:56.976Z,4.38
2022-11-17T01:19:25.547Z,4.32
2022-11-17T01:21:55.193Z,4.35
2022-11-17T01:24:23.243Z,5.75
2022-11-17T01:26:51.924Z,4.70
2022-11-17T01:29:20.141Z,5.40
2022-11-17T01:31:51.737Z,5.68
2022-11-17T01:34:20.366Z,4.78
2022-11-17T01:37:06.131Z,4.68
2022-11-17T01:39:35.598Z,4.65
2022-11-17T01:42:05.490Z,5.63
2022-11-17T01:44:57.248Z,4.18
2022-11-17T01:47:30.267Z,4.38
2022-11-17T01:50:04.737Z,4.10
2022-11-17T01:52:35.873Z,4.40
2022-11-17T01:55:08.000Z,4.40
2022-11-17T01:57:41.680Z,4.88
2022-11-17T02:00:11.418Z,4.30
2022-11-17T02:02:42.101Z,4.22
2022-11-17T02:05:21.183Z,4.55
2022-11-17T02:07:53.050Z,3.95
2022-11-17T02:10:23.085Z,4.53
2022-11-17T02:12:53.272Z,4.18
2022-11-17T02:15:22.519Z,4.07
2022-11-17T02:17:52.383Z,3.92
2022-11-17T02:20:31.795Z,3.65
2022-11-17T02:23:36.942Z,3.85
2022-11-17T02:26:46.896Z,3.20
2022-11-17T02:29:22.973Z,4.07
2022-11-17T02:31:58.175Z,2.85
2022-11-17T02:34:35.834Z,3.58
2022-11-17T02:37:11.371Z,3.40
2022-11-17T02:39:44.719Z,3.22
2022-11-17T02:42:21.050Z,3.00
2022-11-17T02:44:55.321Z,3.08
2022-11-17T02:47:28.252Z,3.35
2022-11-17T02:50:01.456Z,3.05
2022-11-17T02:52:31.345Z,3.60
2022-11-17T02:55:00.738Z,2.45
2022-11-17T02:57:30.153Z,3.25
2022-11-17T03:00:02.687Z,3.88
2022-11-17T03:02:47.436Z,4.13
2022-11-17T03:05:20.017Z,4.00
2022-11-17T03:08:07.350Z,3.95
2022-11-17T03:10:46.487Z,4.47
2022-11-17T03:13:22.521Z,5.05
2022-11-17T03:15:57.785Z,4.53
2022-11-17T03:18:31.502Z,4.47
2022-11-17T03:21:09.144Z,4.15
2022-11-17T03:23:41.894Z,4.10
2022-11-17T03:26:22.119Z,4.70
2022-11-17T03:28:50.456Z,3.78
2022-11-17T03:31:21.830Z,4.85
2022-11-17T03:33:51.376Z,3.80
2022-11-17T03:36:24.014Z,5.20
2022-11-17T03:38:59.992Z,4.20
2022-11-17T03:41:33.056Z,3.67
2022-11-17T03:44:03.682Z,3.92
2022-11-17T03:46:35.759Z,4.35
2022-11-17T03:49:10.743Z,4.85
2022-11-17T03:51:39.212Z,4.57
2022-11-17T03:54:08.843Z,4.50
2022-11-17T03:56:45.468Z,3.50
2022-11-17T03:59:19.303Z,4.20
2022-11-17T04:01:49.118Z,4.65
2022-11-17T04:04:17.983Z,4.80
2022-11-17T04:06:46.825Z,4.22
2022-11-17T04:09:17.678Z,4.95
2022-11-17T04:12:06.756Z,4.35
2022-11-17T04:14:52.431Z,5.32
2022-11-17T04:17:21.784Z,4.18
2022-11-17T04:19:49.950Z,4.97
2022-11-17T04:22:18.107Z,5.43
2022-11-17T04:24:46.150Z,4.57
2022-11-17T04:27:31.456Z,5.10
2022-11-17T04:29:59.361Z,5.05
2022-11-17T04:32:28.868Z,4.20
2022-11-17T04:34:56.820Z,4.18
2022-11-17T04:37:26.179Z,4.55
2022-11-17T04:39:54.959Z,4.30
2022-11-17T04:42:22.197Z,4.63
2022-11-17T04:44:50.564Z,4.65
2022-11-17T04:47:18.753Z,4.10
2022-11-17T04:49:51.892Z,4.45
2022-11-17T04:52:22.259Z,4.38
2022-11-17T04:54:59.409Z,4.72
2022-11-17T04:57:27.387Z,5.15
2022-11-17T04:59:55.815Z,3.90
2022-11-17T05:02:24.002Z,4.28
2022-11-17T05:04:59.416Z,4.25
2022-11-17T05:07:28.004Z,4.40
2022-11-17T05:09:56.223Z,4.25
2022-11-17T05:12:41.636Z,4.50
2022-11-17T05:15:10.417Z,4.35
2022-11-17T05:17:37.479Z,5.43
2022-11-17T05:20:08.123Z,4.60
2022-11-17T05:23:08.409Z,4.85
2022-11-17T05:25:36.852Z,4.10
2022-11-17T05:28:05.013Z,5.43
2022-11-17T05:30:33.371Z,4.85
2022-11-17T05:33:01.642Z,6.20
2022-11-17T05:35:31.771Z,4.97
2022-11-17T05:38:00.118Z,4.68
2022-11-17T05:40:28.146Z,4.40
2022-11-17T05:42:57.295Z,3.97
2022-11-17T05:45:25.399Z,5.10
2022-11-17T05:47:53.604Z,3.78
2022-11-17T05:50:21.666Z,4.90
2022-11-17T05:52:51.155Z,3.92
2022-11-17T05:55:19.231Z,3.72
2022-11-17T05:57:48.896Z,3.20
2022-11-17T06:00:17.464Z,3.42
2022-11-17T06:02:50.657Z,3.53
2022-11-17T06:05:20.572Z,3.90
2022-11-17T06:07:49.703Z,3.60
2022-11-17T06:10:37.623Z,3.67
2022-11-17T06:13:08.387Z,3.35
2022-11-17T06:15:36.878Z,3.50
2022-11-17T06:18:32.160Z,3.63
2022-11-17T06:21:00.367Z,3.55
2022-11-17T06:23:33.305Z,4.03
2022-11-17T06:26:06.798Z,2.70
2022-11-17T06:28:36.239Z,3.15
2022-11-17T06:31:06.096Z,3.00
2022-11-17T06:33:37.500Z,3.28
2022-11-17T06:36:08.088Z,2.70
2022-11-17T06:38:36.983Z,3.40
2022-11-17T06:41:11.599Z,2.70
2022-11-17T06:43:43.274Z,2.97
2022-11-17T06:46:11.285Z,2.20
2022-11-17T06:48:39.565Z,2.70
2022-11-17T06:51:08.138Z,2.65
2022-11-17T06:53:36.664Z,3.15
2022-11-17T06:56:08.640Z,3.78
2022-11-17T06:58:39.137Z,2.47
2022-11-17T07:01:11.001Z,2.70
2022-11-17T07:03:41.884Z,2.60
2022-11-17T07:06:12.475Z,3.30
2022-11-17T07:08:40.713Z,2.60
2022-11-17T07:11:12.545Z,2.75
2022-11-17T07:13:41.215Z,2.63
2022-11-17T07:16:11.941Z,2.75
2022-11-17T07:18:41.572Z,2.75
2022-11-17T07:21:11.823Z,2.45
2022-11-17T07:23:40.881Z,2.13
2022-11-17T07:26:10.667Z,2.40
2022-11-17T07:28:39.139Z,2.00
2022-11-17T07:31:09.301Z,2.30
2022-11-17T07:33:37.655Z,2.35
2022-11-17T07:36:07.542Z,2.17
2022-11-17T07:38:37.035Z,2.30
2022-11-17T07:41:07.037Z,2.15
2022-11-17T07:43:37.384Z,1.90
2022-11-17T07:46:06.636Z,1.42
2022-11-17T07:48:35.575Z,2.15
2022-11-17T07:51:05.012Z,1.77
2022-11-17T07:53:35.257Z,2.08
2022-11-17T07:56:05.031Z,1.70
2022-11-17T07:58:34.346Z,1.98
2022-11-17T08:01:08.468Z,2.50
2022-11-17T08:03:37.193Z,1.90
2022-11-17T08:06:05.666Z,1.90
2022-11-17T08:08:35.880Z,1.90
2022-11-17T08:11:05.246Z,1.83
2022-11-17T08:13:33.605Z,2.47
2022-11-17T08:16:02.441Z,1.67
2022-11-17T08:18:33.040Z,2.20
2022-11-17T08:21:05.968Z,1.80
2022-11-17T08:23:34.956Z,2.10
2022-11-17T08:26:04.237Z,2.05
2022-11-17T08:28:34.177Z,1.92
2022-11-17T08:31:03.206Z,2.03
2022-11-17T08:33:33.365Z,1.52
2022-11-17T08:36:02.767Z,1.40
2022-11-17T08:38:31.679Z,1.10
2022-11-17T08:41:02.628Z,1.00
2022-11-17T08:43:33.314Z,1.00
2022-11-17T08:46:02.592Z,1.00
2022-11-17T08:48:33.393Z,1.08
2022-11-17T08:51:09.240Z,0.85
2022-11-17T08:53:37.391Z,1.02
2022-11-17T08:56:08.349Z,0.77
2022-11-17T08:58:40.297Z,0.70
2022-11-17T09:01:09.905Z,0.70
2022-11-17T09:03:39.777Z,1.20
2022-11-17T09:06:08.179Z,0.80
2022-11-17T09:08:45.675Z,0.95
2022-11-17T09:11:16.862Z,0.90
2022-11-17T09:13:45.858Z,1.23
2022-11-17T09:16:14.423Z,0.93
2022-11-17T09:18:44.236Z,0.95
2022-11-17T09:21:16.229Z,1.38
2022-11-17T09:23:47.375Z,1.05
2022-11-17T09:26:17.183Z,0.88
2022-11-17T09:28:45.824Z,1.05
2022-11-17T09:31:16.409Z,0.73
2022-11-17T09:33:46.314Z,1.65
2022-11-17T09:36:16.341Z,1.10
2022-11-17T09:38:44.868Z,0.90
2022-11-17T09:41:24.320Z,1.00
2022-11-17T09:44:20.775Z,0.90
2022-11-17T09:46:58.659Z,0.73
2022-11-17T09:49:40.857Z,0.90
2022-11-17T09:52:47.238Z,1.20
2022-11-17T09:55:23.794Z,0.80
2022-11-17T09:57:59.545Z,0.82
2022-11-17T10:00:27.848Z,1.30
2022-11-17T10:02:56.669Z,1.10
2022-11-17T10:05:30.837Z,0.85
2022-11-17T10:08:03.563Z,1.30
2022-11-17T10:10:38.321Z,0.90
2022-11-17T10:13:12.524Z,1.40
2022-11-17T10:15:47.262Z,1.10
2022-11-17T10:18:17.472Z,0.85
2022-11-17T10:20:47.383Z,1.00
2022-11-17T10:23:18.262Z,1.50
2022-11-17T10:25:49.084Z,0.93
2022-11-17T10:28:29.189Z,1.20
2022-11-17T10:31:00.724Z,2.45
2022-11-17T10:33:36.469Z,1.25
2022-11-17T10:36:09.094Z,1.20
2022-11-17T10:38:37.751Z,1.02
2022-11-17T10:41:06.116Z,1.00
2022-11-17T10:43:37.887Z,1.50
2022-11-17T10:46:13.891Z,1.30
2022-11-17T10:49:05.205Z,1.33
2022-11-17T10:51:35.639Z,1.20
2022-11-17T10:54:07.296Z,1.20
2022-11-17T10:56:42.826Z,1.45
2022-11-17T10:59:17.479Z,1.30
2022-11-17T11:01:50.495Z,1.10
2022-11-17T11:05:08.984Z,1.10
2022-11-17T11:07:39.405Z,0.80
2022-11-17T11:10:15.782Z,0.98
2022-11-17T11:12:49.365Z,1.13
2022-11-17T11:15:21.912Z,1.50
2022-11-17T11:17:51.171Z,1.65
2022-11-17T11:20:23.602Z,1.33
2022-11-17T11:22:58.338Z,1.33
2022-11-17T11:25:35.673Z,1.27
2022-11-17T11:28:13.006Z,1.35
2022-11-17T11:30:55.873Z,1.27
2022-11-17T11:33:36.407Z,0.90
2022-11-17T11:36:16.517Z,1.00
2022-11-17T11:38:58.152Z,1.35
2022-11-17T11:41:40.728Z,0.90
2022-11-17T11:44:31.561Z,1.17
2022-11-17T11:47:09.716Z,1.20
2022-11-17T11:49:42.853Z,1.27
2022-11-17T11:52:16.178Z,1.35
2022-11-17T11:54:52.506Z,1.30
2022-11-17T11:57:28.216Z,0.70
2022-11-17T12:00:04.643Z,1.05
2022-11-17T12:02:43.065Z,0.73
2022-11-17T12:05:20.844Z,1.13
2022-11-17T12:07:55.623Z,0.70
2022-11-17T12:10:33.066Z,0.82
2022-11-17T12:13:03.155Z,0.93
2022-11-17T12:15:38.434Z,1.20
2022-11-17T12:18:13.782Z,0.88
2022-11-17T12:20:53.848Z,1.00
2022-11-17T12:23:42.784Z,1.05
2022-11-17T12:26:22.422Z,0.85
2022-11-17T12:28:50.777Z,1.10
2022-11-17T12:31:43.729Z,1.20
2022-11-17T12:34:22.816Z,1.30
2022-11-17T12:37:27.932Z,1.75
2022-11-17T12:40:01.922Z,1.10
2022-11-17T12:42:32.863Z,1.35
2022-11-17T12:45:12.850Z,1.95
2022-11-17T12:47:50.930Z,0.90
2022-11-17T12:50:54.098Z,1.35
2022-11-17T12:53:47.890Z,1.73
2022-11-17T12:56:36.986Z,1.90
2022-11-17T12:59:20.434Z,1.25
2022-11-17T13:01:57.433Z,1.35
2022-11-17T13:04:34.742Z,1.60
2022-11-17T13:07:04.408Z,1.38
2022-11-17T13:09:35.047Z,1.38
2022-11-17T13:12:15.171Z,1.23
2022-11-17T13:15:21.933Z,1.20
2022-11-17T13:17:53.764Z,1.27
2022-11-17T13:20:27.604Z,1.65
2022-11-17T13:23:09.004Z,1.17
2022-11-17T13:25:37.606Z,1.25
2022-11-17T13:28:06.918Z,1.80
2022-11-17T13:30:37.287Z,1.80
2022-11-17T13:33:13.469Z,2.13
2022-11-17T13:35:41.832Z,1.92
2022-11-17T13:38:20.215Z,1.45
2022-11-17T13:40:50.590Z,1.50
2022-11-17T13:43:21.057Z,2.20
2022-11-17T13:45:53.947Z,2.03
2022-11-17T13:48:33.371Z,1.48
2022-11-17T13:51:28.906Z,1.75
2022-11-17T13:54:00.657Z,1.30
2022-11-17T13:56:35.603Z,1.42
2022-11-17T13:59:07.143Z,1.80
2022-11-17T14:01:36.763Z,2.10
2022-11-17T14:04:20.635Z,1.90
2022-11-17T14:06:57.497Z,1.75
2022-11-17T14:09:26.847Z,2.13
2022-11-17T14:11:55.836Z,1.75
2022-11-17T14:14:32.607Z,1.80
2022-11-17T14:17:13.099Z,1.83
2022-11-17T14:19:42.175Z,2.20
2022-11-17T14:22:31.895Z,1.92
2022-11-17T14:25:00.723Z,2.28
2022-11-17T14:27:40.876Z,1.90
2022-11-17T14:30:14.852Z,2.30
2022-11-17T14:32:44.256Z,1.65
2022-11-17T14:35:15.152Z,1.92
2022-11-17T14:37:43.786Z,1.88
2022-11-17T14:40:15.254Z,2.20
2022-11-17T14:42:43.657Z,1.60
2022-11-17T14:45:14.458Z,2.40
2022-11-17T14:47:44.745Z,1.98
2022-11-17T14:50:14.881Z,2.20
2022-11-17T14:52:43.935Z,1.55
2022-11-17T14:55:12.758Z,2.35
2022-11-17T14:57:56.076Z,2.65
2022-11-17T15:00:24.169Z,1.90
2022-11-17T15:02:54.339Z,1.98
2022-11-17T15:05:22.815Z,2.35
2022-11-17T15:07:50.892Z,2.00
2022-11-17T15:10:19.510Z,2.58
2022-11-17T15:12:47.618Z,2.30
2022-11-17T15:15:16.036Z,3.08
2022-11-17T15:17:44.041Z,1.60
2022-11-17T15:20:14.009Z,2.60
2022-11-17T15:22:42.091Z,2.10
2022-11-17T15:25:10.857Z,2.40
2022-11-17T15:27:38.915Z,1.90
2022-11-17T15:30:08.795Z,3.13
2022-11-17T15:32:37.842Z,2.58
2022-11-17T15:35:10.520Z,2.25
2022-11-17T15:37:40.016Z,2.67
2022-11-17T15:40:09.055Z,2.10
2022-11-17T15:42:37.306Z,1.80
2022-11-17T15:45:06.064Z,3.05
2022-11-17T15:47:35.185Z,2.60
2022-11-17T15:50:03.356Z,2.00
2022-11-17T15:52:49.102Z,1.75
2022-11-17T15:55:21.152Z,2.00
2022-11-17T15:57:49.200Z,2.10
2022-11-17T16:00:19.023Z,1.95
2022-11-17T16:02:47.130Z,2.22
2022-11-17T16:05:15.740Z,2.15
2022-11-17T16:10:12.464Z,2.97
2022-11-17T16:12:42.358Z,2.70
2022-11-17T16:15:10.759Z,2.33
2022-11-17T16:17:38.931Z,2.47
2022-11-17T16:20:08.561Z,2.25
2022-11-17T16:22:37.039Z,2.50
2022-11-17T16:25:07.398Z,2.10
2022-11-17T16:27:35.417Z,2.72
2022-11-17T16:30:05.702Z,18.77
2022-11-17T16:32:34.149Z,6.18
2022-11-17T16:35:06.588Z,2.78
2022-11-17T16:37:35.366Z,2.50
2022-11-17T16:40:04.590Z,2.20
2022-11-17T16:42:33.700Z,2.20
2022-11-17T16:45:01.765Z,2.60
2022-11-17T16:47:31.307Z,2.22
2022-11-17T16:49:59.444Z,2.45
2022-11-17T16:52:27.718Z,2.78
2022-11-17T16:54:58.133Z,2.45
2022-11-17T16:57:30.250Z,2.42
2022-11-17T16:59:58.370Z,2.22
2022-11-17T17:02:27.365Z,2.60
2022-11-17T17:04:56.973Z,2.70
2022-11-17T17:07:25.234Z,2.63
2022-11-17T17:09:53.545Z,1.95
2022-11-17T17:12:21.966Z,1.98
2022-11-17T17:14:50.034Z,2.60
2022-11-17T17:17:18.199Z,2.15
2022-11-17T17:19:46.413Z,2.45
2022-11-17T17:22:15.846Z,2.70
2022-11-17T17:24:44.300Z,1.80
2022-11-17T17:27:12.450Z,1.98
2022-11-17T17:29:47.535Z,5.07
2022-11-17T17:32:15.657Z,2.67
2022-11-17T17:34:43.753Z,3.08
2022-11-17T17:37:12.203Z,1.92
2022-11-17T17:39:41.779Z,2.10
2022-11-17T17:42:09.984Z,3.45
2022-11-17T17:44:38.284Z,2.65
2022-11-17T17:47:06.506Z,2.80
2022-11-17T17:49:34.926Z,2.13
2022-11-17T17:52:02.913Z,2.20
2022-11-17T17:54:31.131Z,2.00
2022-11-17T17:57:00.748Z,1.90
2022-11-17T17:59:28.899Z,2.47
2022-11-17T18:01:57.375Z,3.15
2022-11-17T18:04:26.058Z,1.65
2022-11-17T18:06:56.922Z,2.10
2022-11-17T18:09:27.649Z,2.20
2022-11-17T18:11:56.024Z,2.22
2022-11-17T18:14:25.538Z,1.80
2022-11-17T18:16:54.389Z,1.63
2022-11-17T18:19:32.572Z,2.53
2022-11-17T18:22:03.960Z,1.48
2022-11-17T18:24:33.276Z,2.00
2022-11-17T18:27:02.481Z,1.73
2022-11-17T18:29:37.287Z,1.45
2022-11-17T18:32:08.295Z,1.77
2022-11-17T18:34:38.552Z,1.92
2022-11-17T18:37:06.581Z,2.05
2022-11-17T18:39:34.907Z,1.80
2022-11-17T18:42:02.976Z,1.55
2022-11-17T18:44:33.955Z,2.30
2022-11-17T18:47:03.162Z,1.88
2022-11-17T18:49:31.926Z,2.45
2022-11-17T18:52:00.186Z,1.70
2022-11-17T18:54:28.258Z,2.40
2022-11-17T18:56:56.433Z,2.90
2022-11-17T18:59:24.534Z,3.22
2022-11-17T19:01:54.103Z,2.60
2022-11-17T19:04:22.480Z,2.85
2022-11-17T19:06:51.052Z,3.20
2022-11-17T19:09:19.558Z,2.17
2022-11-17T19:11:47.727Z,2.38
2022-11-17T19:14:16.001Z,3.00
2022-11-17T19:16:45.316Z,2.08
2022-11-17T19:19:15.533Z,2.60
2022-11-17T19:21:44.373Z,3.65
2022-11-17T19:24:12.785Z,3.80
2022-11-17T19:26:44.115Z,4.60
2022-11-17T19:29:17.073Z,4.63
2022-11-17T19:31:45.759Z,2.65
2022-11-17T19:34:15.682Z,1.48
2022-11-17T19:36:44.698Z,1.45
2022-11-17T19:39:14.480Z,1.35
2022-11-17T19:41:43.621Z,1.70
2022-11-17T19:44:11.912Z,1.02
2022-11-17T19:46:39.952Z,1.33
2022-11-17T19:49:08.786Z,0.98
2022-11-17T19:51:38.630Z,1.00
2022-11-17T19:54:08.693Z,1.20
2022-11-17T19:57:02.316Z,0.90
2022-11-17T19:59:30.467Z,1.00
2022-11-17T20:02:01.304Z,1.00
2022-11-17T20:04:29.699Z,1.10
2022-11-17T20:06:59.853Z,0.90
2022-11-17T20:09:30.972Z,0.82
2022-11-17T20:12:01.528Z,0.93
2022-11-17T20:14:51.211Z,0.70
2022-11-17T20:17:19.255Z,0.75
2022-11-17T20:19:50.670Z,0.85
2022-11-17T20:22:20.184Z,0.85
2022-11-17T20:24:49.664Z,0.73
2022-11-17T20:27:21.181Z,0.80
2022-11-17T20:29:49.415Z,0.82
2022-11-17T20:32:17.779Z,0.63
2022-11-17T20:34:49.159Z,0.50
2022-11-17T20:37:17.488Z,0.50
2022-11-17T20:39:47.124Z,0.60
2022-11-17T20:42:18.053Z,0.63
2022-11-17T20:44:48.850Z,0.73
2022-11-17T20:47:17.382Z,0.57
2022-11-17T20:49:45.456Z,0.80
2022-11-17T20:52:13.826Z,0.70
2022-11-17T20:54:42.066Z,0.90
2022-11-17T20:57:11.449Z,0.60
2022-11-17T20:59:39.533Z,0.70
2022-11-17T21:02:07.599Z,0.60
2022-11-17T21:05:06.009Z,0.60
2022-11-17T21:07:34.619Z,0.70
2022-11-17T21:10:22.923Z,0.60
2022-11-17T21:12:52.318Z,0.65
2022-11-17T21:15:20.441Z,1.00
2022-11-17T21:18:06.101Z,0.73
2022-11-17T21:20:34.397Z,0.73
2022-11-17T21:23:02.381Z,0.65
2022-11-17T21:25:30.402Z,0.60
2022-11-17T21:27:59.942Z,0.70
2022-11-17T21:30:28.467Z,0.73
2022-11-17T21:32:56.924Z,1.00
2022-11-17T21:35:24.948Z,0.80
2022-11-17T21:37:53.160Z,0.60
2022-11-17T21:40:21.262Z,0.80
2022-11-17T21:42:49.368Z,0.50
2022-11-17T21:45:19.267Z,0.75
2022-11-17T21:47:47.636Z,0.70
2022-11-17T21:50:15.947Z,0.60
2022-11-17T21:52:44.150Z,0.60
2022-11-17T21:55:12.358Z,0.73
2022-11-17T21:57:40.799Z,0.50
2022-11-17T22:00:10.241Z,0.90
2022-11-17T22:02:39.837Z,0.80
2022-11-17T22:05:08.644Z,0.80
2022-11-17T22:07:36.909Z,0.80
2022-11-17T22:10:05.817Z,0.50
2022-11-17T22:12:34.186Z,0.60
2022-11-17T22:15:05.043Z,0.70
2022-11-17T22:17:35.295Z,0.70
2022-11-17T22:20:05.897Z,0.70
2022-11-17T22:22:35.573Z,0.70
2022-11-17T22:25:22.853Z,0.80
2022-11-17T22:27:54.996Z,0.80
2022-11-17T22:30:23.182Z,0.70
2022-11-17T22:32:51.351Z,0.68
2022-11-17T22:35:20.840Z,1.00
2022-11-17T22:37:49.546Z,1.08
2022-11-17T22:40:17.718Z,0.70
2022-11-17T22:42:45.923Z,0.60
2022-11-17T22:45:14.141Z,0.60
2022-11-17T22:47:42.339Z,0.52
2022-11-17T22:50:11.060Z,0.70
2022-11-17T22:52:40.825Z,0.60
2022-11-17T22:55:09.514Z,0.80
2022-11-17T22:57:37.784Z,0.77
2022-11-17T23:00:07.038Z,0.80
2022-11-17T23:02:35.449Z,0.82
2022-11-17T23:05:03.493Z,0.60
2022-11-17T23:07:31.779Z,0.77
2022-11-17T23:10:01.351Z,0.73
2022-11-17T23:12:29.698Z,0.50
2022-11-17T23:14:57.823Z,0.60
2022-11-17T23:17:26.088Z,0.65
2022-11-17T23:19:54.102Z,1.20
2022-11-17T23:22:22.471Z,0.73
2022-11-17T23:24:50.664Z,0.68
2022-11-17T23:27:20.178Z,0.70
2022-11-17T23:29:48.589Z,0.60
2022-11-17T23:32:16.546Z,0.65
2022-11-17T23:34:58.406Z,0.60
2022-11-17T23:37:26.439Z,0.68
2022-11-17T23:39:55.184Z,0.80
2022-11-17T23:42:29.928Z,1.35
2022-11-17T23:45:00.368Z,1.05
2022-11-17T23:47:28.385Z,0.60
2022-11-17T23:49:56.583Z,1.10
2022-11-17T23:52:24.569Z,0.73
2022-11-17T23:54:52.803Z,0.80
2022-11-17T23:57:21.733Z,1.10
2022-11-17T23:59:51.380Z,1.15
